Big Bear Station Historical Data
Daily Summary for March 31, 2019 Units:  English    Metric   Both
Next Day »
Daily Weekly Monthly Yearly Custom
  High: Low: Average:
Temperature: 60.3 °F 26.6 °F 41 °F
Dew Point: 31.8 °F 22.1 °F 25.3 °F
Humidity: 88% 29% 58%
Wind Speed: 6.3mph 0.0mph 1.1mph
Wind Gust: -999.0mph - -
Wind- - SW
Pressure: 23.59 in 23.52 in -
Precipitation: 0.00 in    
Historical Graphs
 
 
Tabular Data for March 31, 2019
Time Temperature Dew Point Pressure Wind Wind Speed Wind Gust Humidity Rainfall Rate (Hourly)
00:03 31.6 °F 23.3 °F 23.56 in Calm   -999.0 mph 71% 0.00 in
00:18 31.1 °F 23.1 °F 23.56 in Calm   -999.0 mph 72% 0.00 in
00:33 30.6 °F 22.3 °F 23.55 in Calm   -999.0 mph 71% 0.00 in
00:48 30.0 °F 22.7 °F 23.56 in Calm   -999.0 mph 74% 0.00 in
01:04 30.0 °F 22.7 °F 23.55 in Calm   -999.0 mph 74% 0.00 in
01:19 29.7 °F 22.1 °F 23.55 in Calm   -999.0 mph 73% 0.00 in
01:34 29.7 °F 22.7 °F 23.56 in Calm   -999.0 mph 75% 0.00 in
01:49 29.7 °F 23.7 °F 23.55 in Calm   -999.0 mph 78% 0.00 in
02:04 29.1 °F 23.7 °F 23.55 in Calm   -999.0 mph 80% 0.00 in
02:20 28.9 °F 23.2 °F 23.55 in Calm   -999.0 mph 79% 0.00 in
02:35 28.9 °F 22.3 °F 23.55 in Calm   -999.0 mph 76% 0.00 in
02:50 28.2 °F 22.5 °F 23.55 in Calm   -999.0 mph 79% 0.00 in
03:05 28.2 °F 22.8 °F 23.55 in Calm   -999.0 mph 80% 0.00 in
03:20 27.9 °F 23.1 °F 23.55 in Calm   -999.0 mph 82% 0.00 in
03:36 27.9 °F 23.7 °F 23.54 in Calm   -999.0 mph 84% 0.00 in
03:51 27.9 °F 24.0 °F 23.54 in Calm   -999.0 mph 85% 0.00 in
04:06 27.5 °F 23.6 °F 23.54 in Calm   -999.0 mph 85% 0.00 in
04:21 27.9 °F 24.3 °F 23.54 in Calm   -999.0 mph 86% 0.00 in
04:36 27.7 °F 23.8 °F 23.54 in Calm   -999.0 mph 85% 0.00 in
04:52 27.3 °F 23.1 °F 23.54 in Calm   -999.0 mph 84% 0.00 in
05:07 26.8 °F 22.9 °F 23.54 in Calm   -999.0 mph 85% 0.00 in
05:22 27.0 °F 23.4 °F 23.54 in Calm   -999.0 mph 86% 0.00 in
05:37 27.0 °F 23.6 °F 23.54 in Calm   -999.0 mph 87% 0.00 in
05:53 27.0 °F 23.6 °F 23.54 in Calm   -999.0 mph 87% 0.00 in
06:08 26.8 °F 23.5 °F 23.54 in Calm   -999.0 mph 87% 0.00 in
06:23 27.0 °F 23.6 °F 23.54 in Calm   -999.0 mph 87% 0.00 in
06:38 26.8 °F 23.7 °F 23.54 in Calm   -999.0 mph 88% 0.00 in
06:53 26.6 °F 23.5 °F 23.55 in Calm   -999.0 mph 88% 0.00 in
07:09 26.6 °F 23.5 °F 23.55 in Calm   -999.0 mph 88% 0.00 in
07:24 27.0 °F 23.9 °F 23.55 in Calm   -999.0 mph 88% 0.00 in
07:39 27.0 °F 23.9 °F 23.55 in Calm   -999.0 mph 88% 0.00 in
07:54 27.9 °F 24.5 °F 23.56 in Calm   -999.0 mph 87% 0.00 in
08:09 28.8 °F 25.1 °F 23.56 in Calm   -999.0 mph 86% 0.00 in
08:25 30.4 °F 26.1 °F 23.56 in Calm   -999.0 mph 84% 0.00 in
08:40 34.9 °F 26.8 °F 23.56 in Calm   -999.0 mph 72% 0.00 in
08:55 40.1 °F 23.9 °F 23.56 in South 1.7 mph -999.0 mph 52% 0.00 in
09:10 41.2 °F 23.5 °F 23.56 in ESE 1.1 mph -999.0 mph 49% 0.00 in
09:25 42.4 °F 23.6 °F 23.56 in Calm   -999.0 mph 47% 0.00 in
09:41 44.1 °F 23.6 °F 23.57 in North 3.2 mph -999.0 mph 44% 0.00 in
09:56 45.1 °F 22.8 °F 23.57 in NW 5.3 mph -999.0 mph 41% 0.00 in
10:11 45.9 °F 22.3 °F 23.58 in NW 2.7 mph -999.0 mph 39% 0.00 in
10:26 46.6 °F 22.3 °F 23.58 in Calm   -999.0 mph 38% 0.00 in
10:42 48.2 °F 23.1 °F 23.58 in ENE 1.7 mph -999.0 mph 37% 0.00 in
10:57 50.4 °F 23.8 °F 23.59 in Calm   -999.0 mph 35% 0.00 in
11:12 51.4 °F 24.6 °F 23.58 in NE 3.7 mph -999.0 mph 35% 0.00 in
11:27 52.9 °F 24.6 °F 23.58 in NNE 2.7 mph -999.0 mph 33% 0.00 in
11:42 54.0 °F 25.5 °F 23.58 in ESE 1.7 mph -999.0 mph 33% 0.00 in
11:58 53.4 °F 24.3 °F 23.58 in NNW 3.7 mph -999.0 mph 32% 0.00 in
12:13 55.8 °F 24.8 °F 23.58 in SSE 3.2 mph -999.0 mph 30% 0.00 in
12:28 54.5 °F 22.9 °F 23.57 in SE 1.1 mph -999.0 mph 29% 0.00 in
12:44 54.9 °F 24.8 °F 23.56 in NE 6.3 mph -999.0 mph 31% 0.00 in
12:59 57.2 °F 26.8 °F 23.56 in NW 4.7 mph -999.0 mph 31% 0.00 in
13:14 56.8 °F 24.9 °F 23.56 in NNE 2.7 mph -999.0 mph 29% 0.00 in
13:29 57.0 °F 25.9 °F 23.56 in NW 3.7 mph -999.0 mph 30% 0.00 in
13:44 58.1 °F 26.0 °F 23.55 in NW 4.7 mph -999.0 mph 29% 0.00 in
14:00 57.7 °F 27.3 °F 23.54 in ENE 4.2 mph -999.0 mph 31% 0.00 in
14:15 59.0 °F 28.4 °F 23.54 in NW 5.3 mph -999.0 mph 31% 0.00 in
14:30 59.2 °F 27.8 °F 23.54 in NNE 3.2 mph -999.0 mph 30% 0.00 in
14:45 59.7 °F 28.2 °F 23.54 in NW 3.7 mph -999.0 mph 30% 0.00 in
15:00 58.8 °F 29.0 °F 23.53 in NNW 4.2 mph -999.0 mph 32% 0.00 in
15:16 58.6 °F 30.3 °F 23.53 in SSW 2.7 mph -999.0 mph 34% 0.00 in
15:46 59.4 °F 28.7 °F 23.52 in NNW 3.7 mph -999.0 mph 31% 0.00 in
16:01 57.4 °F 28.5 °F 23.52 in NW 4.7 mph -999.0 mph 33% 0.00 in
16:16 57.2 °F 29.8 °F 23.52 in NNE 3.7 mph -999.0 mph 35% 0.00 in
16:32 57.2 °F 29.8 °F 23.52 in Calm   -999.0 mph 35% 0.00 in
16:47 57.0 °F 31.0 °F 23.53 in WSW 2.2 mph -999.0 mph 37% 0.00 in
17:02 57.2 °F 29.8 °F 23.53 in WNW 3.2 mph -999.0 mph 35% 0.00 in
17:17 59.4 °F 30.3 °F 23.53 in NW 3.7 mph -999.0 mph 33% 0.00 in
17:32 60.3 °F 31.8 °F 23.53 in NW 3.2 mph -999.0 mph 34% 0.00 in
17:48 55.4 °F 29.5 °F 23.53 in NNW 3.2 mph -999.0 mph 37% 0.00 in
18:03 52.9 °F 29.8 °F 23.53 in NW 1.7 mph -999.0 mph 41% 0.00 in
18:18 51.4 °F 27.9 °F 23.53 in Calm   -999.0 mph 40% 0.00 in
18:33 50.5 °F 28.8 °F 23.53 in Calm   -999.0 mph 43% 0.00 in
18:49 49.6 °F 29.1 °F 23.54 in Calm   -999.0 mph 45% 0.00 in
19:04 48.4 °F 25.2 °F 23.54 in Calm   -999.0 mph 40% 0.00 in
19:19 46.8 °F 24.9 °F 23.54 in Calm   -999.0 mph 42% 0.00 in
19:34 44.8 °F 24.2 °F 23.54 in Calm   -999.0 mph 44% 0.00 in
19:49 43.5 °F 24.1 °F 23.54 in Calm   -999.0 mph 46% 0.00 in
20:05 41.9 °F 27.8 °F 23.54 in Calm   -999.0 mph 57% 0.00 in
20:20 41.0 °F 26.9 °F 23.55 in Calm   -999.0 mph 57% 0.00 in
20:35 40.3 °F 26.3 °F 23.55 in Calm   -999.0 mph 57% 0.00 in
20:50 39.2 °F 26.9 °F 23.55 in Calm   -999.0 mph 61% 0.00 in
21:05 38.5 °F 27.0 °F 23.56 in Calm   -999.0 mph 63% 0.00 in
21:21 37.6 °F 26.5 °F 23.56 in Calm   -999.0 mph 64% 0.00 in
21:36 36.9 °F 25.9 °F 23.56 in Calm   -999.0 mph 64% 0.00 in
21:51 36.3 °F 25.7 °F 23.56 in Calm   -999.0 mph 65% 0.00 in
22:06 35.8 °F 25.9 °F 23.56 in Calm   -999.0 mph 67% 0.00 in
22:21 35.2 °F 26.4 °F 23.57 in Calm   -999.0 mph 70% 0.00 in
22:37 34.7 °F 26.3 °F 23.57 in Calm   -999.0 mph 71% 0.00 in
22:52 34.2 °F 25.8 °F 23.56 in Calm   -999.0 mph 71% 0.00 in
23:07 33.8 °F 25.4 °F 23.56 in Calm   -999.0 mph 71% 0.00 in
23:22 33.1 °F 25.7 °F 23.56 in Calm   -999.0 mph 74% 0.00 in
23:38 32.7 °F 25.7 °F 23.56 in Calm   -999.0 mph 75% 0.00 in
23:53 32.5 °F 25.8 °F 23.56 in Calm   -999.0 mph 76% 0.00 in
Big Bear CA Weather